Time;durP1;ratioP1;P1;durP2;ratioP2;P2;SDS_P1;SDS_P2;PMS_P1;PMS_P2;Temp;Humidity;BMP_temperature;BMP_pressure;BME280_temperature;BME280_humidity;BME280_pressure;Samples;Min_cycle;Max_cycle;Signal;HPM_P1;HPM_P2
2022/09/05 00:02:14;;;;;;;;;;;;;;;20.56;49.45;101727.78;5113464;28;19914;-56
2022/09/05 00:04:46;;;;;;;;;;;;;;;20.51;49.06;101724.59;5113256;28;19912;-56
2022/09/05 00:07:15;;;;;;;;;;;;;;;20.46;49.08;101724.16;5113220;28;20267;-56
2022/09/05 00:09:46;;;;;;;;;;;;;;;20.40;50.07;101725.56;5113050;28;19912;-56
2022/09/05 00:12:12;;;;;;;;;;;;;;;20.32;50.11;101719.16;5111871;28;19907;-56
2022/09/05 00:14:56;;;;;;;;;;;;;;;20.23;50.17;101718.13;5111247;28;19911;-56
2022/09/05 00:17:27;;;;;;;;;;;;;;;20.21;50.19;101720.16;5113132;28;19931;-56
2022/09/05 00:20:00;;;;;;;;;;;;;;;20.22;51.54;101723.69;5113022;28;19998;-56
2022/09/05 00:22:44;;;;;;;;;;;;;;;20.17;51.68;101721.38;5111762;28;19908;-56
2022/09/05 00:25:12;;;;;;;;;;;;;;;20.11;50.80;101714.69;5112879;28;19908;-56
2022/09/05 00:27:40;;;;;;;;;;;;;;;20.06;50.88;101716.09;5112828;28;19907;-56
2022/09/05 00:30:06;;;;;;;;;;;;;;;20.03;51.04;101721.75;5112371;28;20381;-56
2022/09/05 00:32:42;;;;;;;;;;;;;;;20.01;50.88;101716.53;5113093;28;19907;-56
2022/09/05 00:35:26;;;;;;;;;;;;;;;20.00;51.35;101712.13;5112708;28;20362;-56
2022/09/05 00:37:52;;;;;;;;;;;;;;;19.98;51.22;101719.50;5112921;28;20362;-56
2022/09/05 00:40:17;;;;;;;;;;;;;;;19.93;51.16;101717.19;5112875;28;19908;-56
2022/09/05 00:42:43;;;;;;;;;;;;;;;19.89;51.33;101715.78;5112640;28;19911;-56
2022/09/05 00:45:10;;;;;;;;;;;;;;;19.90;50.78;101720.16;5111047;28;19949;-57
2022/09/05 00:47:41;;;;;;;;;;;;;;;19.87;51.40;101714.19;5112879;28;19918;-56
2022/09/05 00:50:12;;;;;;;;;;;;;;;19.83;51.14;101708.22;5111243;28;20288;-56
2022/09/05 00:52:38;;;;;;;;;;;;;;;19.79;51.47;101716.72;5112509;28;20780;-56
2022/09/05 00:55:21;;;;;;;;;;;;;;;19.72;53.35;101711.00;5112074;28;20002;-56
2022/09/05 00:58:09;;;;;;;;;;;;;;;19.59;52.20;101713.91;5112696;28;19912;-56
2022/09/05 01:00:58;;;;;;;;;;;;;;;19.57;52.09;101712.31;5111131;28;19964;-56
2022/09/05 01:03:31;;;;;;;;;;;;;;;19.51;52.40;101711.88;5116545;28;19916;-56
2022/09/05 01:06:16;;;;;;;;;;;;;;;19.48;52.30;101713.97;5116831;28;20316;-56
2022/09/05 01:08:41;;;;;;;;;;;;;;;19.50;52.57;101717.38;5115070;28;19912;-56
2022/09/05 01:11:07;;;;;;;;;;;;;;;19.51;52.27;101719.09;5116271;28;20411;-56
2022/09/05 01:13:34;;;;;;;;;;;;;;;19.52;52.68;101712.72;5115927;28;19903;-56
2022/09/05 01:16:06;;;;;;;;;;;;;;;19.53;53.21;101714.44;5116468;28;19911;-56
2022/09/05 01:18:48;;;;;;;;;;;;;;;19.47;52.61;101715.81;5116302;28;19907;-56
2022/09/05 01:21:19;;;;;;;;;;;;;;;19.46;52.50;101715.94;5116512;28;19947;-56
2022/09/05 01:23:44;;;;;;;;;;;;;;;19.45;52.74;101723.19;5116368;28;19944;-56
2022/09/05 01:26:10;;;;;;;;;;;;;;;19.43;52.94;101722.47;5116136;28;19911;-56
2022/09/05 01:28:54;;;;;;;;;;;;;;;19.41;52.90;101713.66;5114390;28;20037;-56
2022/09/05 01:31:22;;;;;;;;;;;;;;;19.39;53.03;101712.09;5116144;28;19915;-56
2022/09/05 01:33:50;;;;;;;;;;;;;;;19.37;53.24;101724.84;5116006;28;19911;-56
2022/09/05 01:36:21;;;;;;;;;;;;;;;19.34;53.72;101717.00;5114947;28;19966;-56
2022/09/05 01:38:55;;;;;;;;;;;;;;;19.27;53.23;101717.53;5116126;28;20259;-56
2022/09/05 01:41:27;;;;;;;;;;;;;;;19.26;53.37;101713.13;5114596;28;19907;-56
2022/09/05 01:44:02;;;;;;;;;;;;;;;19.24;52.95;101716.97;5114063;28;19908;-56
2022/09/05 01:46:42;;;;;;;;;;;;;;;19.22;53.25;101714.38;5115891;28;19914;-56
2022/09/05 01:49:30;;;;;;;;;;;;;;;19.17;53.03;101705.81;5115654;28;20263;-56
2022/09/05 01:52:03;;;;;;;;;;;;;;;19.10;53.62;101709.19;5085874;28;19907;-56
2022/09/05 01:54:57;;;;;;;;;;;;;;;19.05;53.36;101706.88;5115504;28;19912;-56
2022/09/05 01:57:28;;;;;;;;;;;;;;;19.04;53.96;101710.56;5115687;28;20293;-56
2022/09/05 02:00:02;;;;;;;;;;;;;;;18.99;53.77;101710.94;5113615;28;19931;-56
2022/09/05 02:02:42;;;;;;;;;;;;;;;18.93;53.66;101706.06;5114208;28;20393;-56
2022/09/05 02:05:11;;;;;;;;;;;;;;;18.91;54.28;101715.28;5114141;28;19916;-56
2022/09/05 02:07:49;;;;;;;;;;;;;;;18.90;54.23;101711.72;5114267;28;20365;-56
2022/09/05 02:10:17;;;;;;;;;;;;;;;18.89;54.12;101711.88;5115229;28;19908;-56
2022/09/05 02:12:46;;;;;;;;;;;;;;;18.87;54.43;101713.84;5114672;28;19992;-56
2022/09/05 02:15:17;;;;;;;;;;;;;;;18.85;54.32;101713.94;5114610;28;19994;-56
2022/09/05 02:17:42;;;;;;;;;;;;;;;18.85;54.50;101711.25;5115297;28;19907;-56
2022/09/05 02:20:29;;;;;;;;;;;;;;;18.81;55.38;101718.75;5115112;28;19911;-56
2022/09/05 02:23:13;;;;;;;;;;;;;;;18.74;54.52;101722.97;5115010;28;19940;-57
2022/09/05 02:25:42;;;;;;;;;;;;;;;18.73;55.89;101714.94;5114953;27;19907;-56
2022/09/05 02:28:13;;;;;;;;;;;;;;;18.69;54.77;101714.38;5114498;28;19916;-56
2022/09/05 02:30:41;;;;;;;;;;;;;;;18.69;55.16;101724.28;5115071;28;20002;-56
2022/09/05 02:33:11;;;;;;;;;;;;;;;18.67;54.50;101727.09;5113412;28;19916;-56
2022/09/05 02:35:36;;;;;;;;;;;;;;;18.68;54.85;101722.56;5113673;28;19911;-56
2022/09/05 02:38:11;;;;;;;;;;;;;;;18.66;54.61;101711.94;5114760;28;19915;-56
2022/09/05 02:40:36;;;;;;;;;;;;;;;18.63;54.92;101712.19;5114840;27;19991;-56
2022/09/05 02:43:16;;;;;;;;;;;;;;;18.61;55.04;101716.84;5114182;28;20447;-56
2022/09/05 02:46:00;;;;;;;;;;;;;;;18.61;54.99;101716.84;5114769;28;19962;-56
2022/09/05 02:48:31;;;;;;;;;;;;;;;18.60;55.15;101724.06;5114566;28;19908;-56
2022/09/05 02:50:56;;;;;;;;;;;;;;;18.55;55.35;101723.59;5114530;28;19912;-56
2022/09/05 02:53:22;;;;;;;;;;;;;;;18.50;55.29;101717.75;5114111;28;19908;-56
2022/09/05 02:56:06;;;;;;;;;;;;;;;18.51;55.63;101718.59;5115040;28;19912;-56
2022/09/05 02:58:54;;;;;;;;;;;;;;;18.49;54.98;101716.00;5113966;28;19912;-56
2022/09/05 03:01:57;;;;;;;;;;;;;;;18.45;55.51;101728.03;5114057;28;19968;-56
2022/09/05 03:04:28;;;;;;;;;;;;;;;18.44;55.19;101720.06;5071244;28;19915;-56
2022/09/05 03:07:05;;;;;;;;;;;;;;;18.41;55.25;101717.63;5054944;28;19919;-56
2022/09/05 03:09:33;;;;;;;;;;;;;;;18.38;55.39;101719.63;5086379;28;19908;-56
2022/09/05 03:12:02;;;;;;;;;;;;;;;18.34;55.59;101712.75;5114226;28;20330;-56
2022/09/05 03:14:45;;;;;;;;;;;;;;;18.31;56.18;101714.84;5113544;28;19912;-56
2022/09/05 03:17:29;;;;;;;;;;;;;;;18.25;55.65;101721.59;5112808;28;19953;-56
2022/09/05 03:20:07;;;;;;;;;;;;;;;18.25;55.90;101718.91;5113905;28;20332;-56
2022/09/05 03:22:51;;;;;;;;;;;;;;;18.26;56.09;101719.75;5113757;28;19908;-56
2022/09/05 03:25:38;;;;;;;;;;;;;;;18.21;55.58;101716.59;5113766;28;19907;-56
2022/09/05 03:28:21;;;;;;;;;;;;;;;18.20;56.07;101714.88;5113376;28;19998;-56
2022/09/05 03:31:05;;;;;;;;;;;;;;;18.13;56.07;101712.66;5114263;28;19914;-56
2022/09/05 03:33:39;;;;;;;;;;;;;;;18.10;56.30;101714.75;5113505;28;19912;-56
2022/09/05 03:36:23;;;;;;;;;;;;;;;18.06;56.58;101718.66;5113800;28;20359;-56
2022/09/05 03:39:07;;;;;;;;;;;;;;;18.04;56.96;101710.72;5113551;28;19962;-56
2022/09/05 03:41:41;;;;;;;;;;;;;;;18.04;57.12;101713.41;5113724;28;20002;-56
2022/09/05 03:44:25;;;;;;;;;;;;;;;18.02;56.20;101719.91;5112970;28;20289;-56
2022/09/05 03:46:50;;;;;;;;;;;;;;;18.01;56.33;101720.91;5113618;28;19912;-56
2022/09/05 03:49:21;;;;;;;;;;;;;;;18.02;57.88;101722.59;5113429;28;20022;-56
2022/09/05 03:52:09;;;;;;;;;;;;;;;17.98;58.14;101716.59;5113469;28;19949;-56
2022/09/05 03:54:50;;;;;;;;;;;;;;;17.97;56.88;101708.66;5112171;27;20351;-56
2022/09/05 03:57:34;;;;;;;;;;;;;;;17.97;57.10;101709.53;5113611;28;20366;-56
2022/09/05 04:00:08;;;;;;;;;;;;;;;17.93;57.07;101718.81;5111452;28;19966;-56
2022/09/05 04:02:48;;;;;;;;;;;;;;;17.91;58.87;101718.94;5113295;28;19907;-56
2022/09/05 04:05:14;;;;;;;;;;;;;;;17.83;56.76;101710.63;5111870;28;20282;-56
2022/09/05 04:07:42;;;;;;;;;;;;;;;17.77;57.38;101708.41;5113296;28;19911;-56
2022/09/05 04:10:12;;;;;;;;;;;;;;;17.74;57.82;101711.31;5113064;28;19912;-56
2022/09/05 04:12:46;;;;;;;;;;;;;;;17.73;57.65;101714.13;5113203;28;20015;-56
2022/09/05 04:15:31;;;;;;;;;;;;;;;17.73;57.20;101714.13;5112614;28;19919;-56
2022/09/05 04:18:01;;;;;;;;;;;;;;;17.75;57.70;101713.03;5113059;28;19939;-56
2022/09/05 04:20:27;;;;;;;;;;;;;;;17.75;57.09;101712.19;5112809;28;19996;-56
2022/09/05 04:23:04;;;;;;;;;;;;;;;17.74;57.79;101715.84;5113019;28;19991;-57
2022/09/05 04:25:48;;;;;;;;;;;;;;;17.75;57.61;101709.50;5111851;28;19907;-56
2022/09/05 04:28:22;;;;;;;;;;;;;;;17.70;57.42;101710.69;5112648;28;19911;-56
2022/09/05 04:30:47;;;;;;;;;;;;;;;17.66;57.68;101713.75;5111817;28;20430;-56
2022/09/05 04:33:18;;;;;;;;;;;;;;;17.65;57.75;101710.22;5112803;28;20006;-56
2022/09/05 04:35:47;;;;;;;;;;;;;;;17.65;57.88;101714.75;5111669;28;20397;-56
2022/09/05 04:38:12;;;;;;;;;;;;;;;17.64;57.98;101707.63;5117058;28;20477;-56
2022/09/05 04:40:43;;;;;;;;;;;;;;;17.64;57.49;101713.03;5117225;28;19919;-56
2022/09/05 04:43:19;;;;;;;;;;;;;;;17.63;57.85;101714.00;5115197;28;19911;-56
2022/09/05 04:45:57;;;;;;;;;;;;;;;17.63;57.73;101724.78;5117139;28;19908;-56
2022/09/05 04:48:31;;;;;;;;;;;;;;;17.60;59.22;101722.31;5116863;28;19908;-56
2022/09/05 04:51:02;;;;;;;;;;;;;;;17.56;57.43;101726.22;5116772;28;20355;-56
2022/09/05 04:53:40;;;;;;;;;;;;;;;17.51;58.74;101741.88;5115395;28;19908;-56
2022/09/05 04:56:09;;;;;;;;;;;;;;;17.49;59.05;101736.59;5116726;28;19915;-56
2022/09/05 04:58:36;;;;;;;;;;;;;;;17.47;59.09;101731.38;5116262;27;19912;-56
2022/09/05 05:01:05;;;;;;;;;;;;;;;17.41;60.16;101734.53;5116543;28;19923;-56
2022/09/05 05:03:32;;;;;;;;;;;;;;;17.38;59.17;101739.28;5116215;28;19908;-56
2022/09/05 05:06:09;;;;;;;;;;;;;;;17.39;58.69;101738.31;5116578;28;19915;-56
2022/09/05 05:08:41;;;;;;;;;;;;;;;17.42;60.09;101732.69;5115148;28;20006;-56
2022/09/05 05:11:10;;;;;;;;;;;;;;;17.41;59.33;101741.72;5116451;28;20363;-56
2022/09/05 05:13:35;;;;;;;;;;;;;;;17.38;59.20;101745.53;5115879;28;19961;-56
2022/09/05 05:16:05;;;;;;;;;;;;;;;17.37;58.39;101743.78;5116404;28;19908;-56
2022/09/05 05:18:31;;;;;;;;;;;;;;;17.36;58.89;101741.25;5114771;28;19907;-56
2022/09/05 05:21:02;;;;;;;;;;;;;;;17.34;59.21;101737.81;5116251;28;20384;-56
2022/09/05 05:23:37;;;;;;;;;;;;;;;17.30;59.45;101747.09;5116025;28;19908;-56
2022/09/05 05:26:05;;;;;;;;;;;;;;;17.29;60.31;101746.22;5114942;28;20061;-56
2022/09/05 05:28:42;;;;;;;;;;;;;;;17.29;59.31;101750.75;5114331;28;19908;-56
2022/09/05 05:31:12;;;;;;;;;;;;;;;17.32;59.29;101748.66;5115979;28;20409;-56
2022/09/05 05:33:38;;;;;;;;;;;;;;;17.36;58.89;101746.63;5114337;28;19918;-56
2022/09/05 05:36:06;;;;;;;;;;;;;;;17.37;59.22;101746.47;5114561;28;19908;-56
2022/09/05 05:38:37;;;;;;;;;;;;;;;17.40;59.30;101745.41;5115986;28;20350;-56
2022/09/05 05:41:23;;;;;;;;;;;;;;;17.40;59.52;101745.41;5115998;28;20354;-56
2022/09/05 05:43:50;;;;;;;;;;;;;;;17.41;59.56;101747.97;5115265;28;19980;-56
2022/09/05 05:46:25;;;;;;;;;;;;;;;17.43;59.35;101739.78;5114740;28;19908;-56
2022/09/05 05:48:52;;;;;;;;;;;;;;;17.42;59.52;101741.63;5114094;28;20286;-56
2022/09/05 05:51:36;;;;;;;;;;;;;;;17.43;59.39;101747.84;5114517;28;20317;-56
2022/09/05 05:54:05;;;;;;;;;;;;;;;17.46;60.03;101744.91;5115411;28;19959;-56
2022/09/05 05:56:45;;;;;;;;;;;;;;;17.48;59.72;101751.03;5115509;28;20001;-56
2022/09/05 05:59:29;;;;;;;;;;;;;;;17.49;60.82;101753.59;5115099;28;19926;-56
2022/09/05 06:02:14;;;;;;;;;;;;;;;17.56;59.95;101755.81;5113864;28;19915;-56
2022/09/05 06:04:57;;;;;;;;;;;;;;;17.59;60.34;101756.44;5113369;28;19918;-56
2022/09/05 06:07:32;;;;;;;;;;;;;;;17.63;60.66;101762.44;5115346;28;19911;-56
2022/09/05 06:10:01;;;;;;;;;;;;;;;17.67;60.55;101758.50;5115354;28;19915;-56
2022/09/05 06:12:45;;;;;;;;;;;;;;;17.70;60.77;101766.34;5114264;28;19957;-56
2022/09/05 06:15:29;;;;;;;;;;;;;;;17.77;61.92;101769.44;5113300;28;20006;-56
2022/09/05 06:18:18;;;;;;;;;;;;;;;17.84;62.61;101768.00;5113722;28;19911;-56
2022/09/05 06:20:43;;;;;;;;;;;;;;;17.91;61.61;101769.22;5105992;28;19908;-56
2022/09/05 06:23:08;;;;;;;;;;;;;;;18.01;62.11;101774.72;5113580;28;19907;-56
2022/09/05 06:25:52;;;;;;;;;;;;;;;18.09;62.31;101777.69;5114915;28;19912;-56
2022/09/05 06:28:29;;;;;;;;;;;;;;;18.16;62.89;101773.50;5114701;28;19996;-56
2022/09/05 06:31:09;;;;;;;;;;;;;;;18.23;62.59;101769.31;5113635;28;19908;-56
2022/09/05 06:34:00;;;;;;;;;;;;;;;18.36;62.94;101774.59;5113422;28;20375;-56
2022/09/05 06:36:29;;;;;;;;;;;;;;;18.51;63.30;101770.63;5098510;28;19961;-56
2022/09/05 06:39:01;;;;;;;;;;;;;;;18.63;62.77;101766.06;5114700;28;19994;-56
2022/09/05 06:41:39;;;;;;;;;;;;;;;18.78;63.69;101770.22;5113488;28;20301;-56
2022/09/05 06:44:12;;;;;;;;;;;;;;;18.93;62.47;101778.03;5114062;28;19912;-56
2022/09/05 06:46:50;;;;;;;;;;;;;;;19.08;62.42;101779.41;5114491;28;20384;-56
2022/09/05 06:49:24;;;;;;;;;;;;;;;19.24;61.70;101779.84;5113334;28;19943;-56
2022/09/05 06:52:08;;;;;;;;;;;;;;;19.43;61.05;101770.19;5113288;28;19961;-56
2022/09/05 06:54:42;;;;;;;;;;;;;;;19.60;60.86;101768.72;5114163;28;20378;-56
2022/09/05 06:57:09;;;;;;;;;;;;;;;19.74;60.52;101771.13;5113264;28;19916;-56
2022/09/05 06:59:55;;;;;;;;;;;;;;;19.90;59.92;101773.31;5111937;28;19911;-56
2022/09/05 07:02:33;;;;;;;;;;;;;;;20.03;58.96;101770.38;5113032;28;19927;-56
2022/09/05 07:05:07;;;;;;;;;;;;;;;20.16;59.44;101776.41;5114186;28;19915;-56
2022/09/05 07:07:44;;;;;;;;;;;;;;;20.24;58.26;101779.31;5112741;28;20488;-56
2022/09/05 07:10:36;;;;;;;;;;;;;;;20.34;57.34;101780.16;5114061;28;19907;-56
2022/09/05 07:13:36;;;;;;;;;;;;;;;20.49;57.68;101788.75;5109249;28;19907;-56
2022/09/05 07:16:17;;;;;;;;;;;;;;;20.62;56.99;101791.25;5054356;28;19913;-56
2022/09/05 07:18:45;;;;;;;;;;;;;;;20.70;56.73;101791.38;5105846;28;19908;-56
2022/09/05 07:21:33;;;;;;;;;;;;;;;20.81;57.15;101779.59;5112748;28;20378;-56
2022/09/05 07:24:21;;;;;;;;;;;;;;;20.96;55.98;101782.72;5113909;28;20319;-56
2022/09/05 07:26:47;;;;;;;;;;;;;;;21.06;54.96;101795.28;5108374;28;19908;-56
2022/09/05 07:29:18;;;;;;;;;;;;;;;21.14;54.95;101789.13;5113032;28;19914;-56
2022/09/05 07:31:47;;;;;;;;;;;;;;;21.23;53.29;101793.69;5113981;28;20391;-56
2022/09/05 07:34:12;;;;;;;;;;;;;;;21.35;53.04;101798.94;5112114;28;19911;-56
2022/09/05 07:36:40;;;;;;;;;;;;;;;21.42;51.31;101800.97;5113711;28;19964;-56
2022/09/05 07:39:06;;;;;;;;;;;;;;;21.50;50.98;101795.72;5112270;28;19908;-56
2022/09/05 07:41:33;;;;;;;;;;;;;;;21.53;51.71;101797.25;5112304;28;19915;-56
2022/09/05 07:44:06;;;;;;;;;;;;;;;21.58;51.71;101804.94;5112845;28;20393;-56
2022/09/05 07:46:37;;;;;;;;;;;;;;;21.66;51.49;101803.22;5113399;28;19992;-56
2022/09/05 07:49:13;;;;;;;;;;;;;;;21.75;51.86;101804.19;5112148;28;19907;-56
2022/09/05 07:51:46;;;;;;;;;;;;;;;21.82;51.84;101804.47;5113521;28;19911;-56
2022/09/05 07:54:19;;;;;;;;;;;;;;;21.95;52.05;101805.00;5113079;28;19912;-56
2022/09/05 07:56:50;;;;;;;;;;;;;;;22.07;51.00;101809.22;5113430;28;19908;-56
2022/09/05 07:59:16;;;;;;;;;;;;;;;22.20;49.77;101803.50;5111251;28;19922;-56
2022/09/05 08:01:43;;;;;;;;;;;;;;;22.33;50.31;101805.88;5146346;27;19916;-56
2022/09/05 08:04:10;;;;;;;;;;;;;;;22.43;50.83;101810.22;5112949;28;20250;-56
2022/09/05 08:06:35;;;;;;;;;;;;;;;22.54;49.45;101800.19;5111894;28;19907;-56
2022/09/05 08:09:24;;;;;;;;;;;;;;;22.67;50.41;101812.38;5113052;28;19915;-56
2022/09/05 08:11:50;;;;;;;;;;;;;;;22.81;49.82;101802.88;5102704;28;20437;-57
2022/09/05 08:14:21;;;;;;;;;;;;;;;22.94;49.29;101802.47;5112630;28;19911;-56
2022/09/05 08:16:47;;;;;;;;;;;;;;;23.13;49.88;101804.22;5113304;28;19962;-56
2022/09/05 08:19:27;;;;;;;;;;;;;;;23.27;48.44;101806.41;5112902;28;20374;-56
2022/09/05 08:21:54;;;;;;;;;;;;;;;23.43;47.53;101804.81;5113095;28;20327;-56
2022/09/05 08:24:25;;;;;;;;;;;;;;;23.57;47.06;101807.81;5112659;28;19953;-56
2022/09/05 08:26:58;;;;;;;;;;;;;;;23.75;46.61;101804.25;5112880;28;19957;-56
2022/09/05 08:29:27;;;;;;;;;;;;;;;23.98;46.68;101812.72;5111056;28;19908;-56
2022/09/05 08:31:55;;;;;;;;;;;;;;;24.19;46.85;101806.88;5113090;28;19911;-56
2022/09/05 08:34:28;;;;;;;;;;;;;;;24.41;46.91;101808.13;5112623;28;20006;-56
2022/09/05 08:36:55;;;;;;;;;;;;;;;24.60;46.67;101810.63;5112876;28;20415;-56
2022/09/05 08:39:23;;;;;;;;;;;;;;;24.76;46.09;101811.69;5112699;28;20354;-56
2022/09/05 08:41:48;;;;;;;;;;;;;;;24.87;46.80;101811.38;5112863;28;20322;-57
2022/09/05 08:44:17;;;;;;;;;;;;;;;25.00;46.09;101810.88;5112364;28;19908;-56
2022/09/05 08:46:59;;;;;;;;;;;;;;;25.09;45.92;101805.31;5112727;28;19947;-56
2022/09/05 08:49:28;;;;;;;;;;;;;;;25.25;44.69;101804.47;5111378;28;20374;-57
2022/09/05 08:52:10;;;;;;;;;;;;;;;25.41;45.34;101806.34;5112843;28;19927;-56
2022/09/05 08:54:55;;;;;;;;;;;;;;;25.54;45.09;101797.66;5112376;28;19965;-56
2022/09/05 08:57:43;;;;;;;;;;;;;;;25.72;42.59;101789.28;5110531;28;20367;-57
2022/09/05 09:00:10;;;;;;;;;;;;;;;25.91;42.34;101794.38;5111961;27;19927;-56
2022/09/05 09:02:45;;;;;;;;;;;;;;;26.05;41.65;101787.34;5112457;28;19911;-57
2022/09/05 09:05:14;;;;;;;;;;;;;;;26.18;42.25;101797.72;5111123;28;19914;-58
2022/09/05 09:07:55;;;;;;;;;;;;;;;26.31;39.90;101795.25;5112564;28;20324;-56
2022/09/05 09:10:23;;;;;;;;;;;;;;;26.50;39.79;101785.81;5112277;28;19907;-56
2022/09/05 09:13:03;;;;;;;;;;;;;;;26.69;41.06;101788.09;5112675;28;19955;-57
2022/09/05 09:15:47;;;;;;;;;;;;;;;26.88;39.49;101794.13;5111083;28;19912;-56
2022/09/05 09:18:15;;;;;;;;;;;;;;;27.05;39.48;101790.25;5112281;28;19911;-57
2022/09/05 09:20:57;;;;;;;;;;;;;;;27.21;37.96;101786.59;5111242;28;19915;-57
2022/09/05 09:23:22;;;;;;;;;;;;;;;27.39;37.79;101789.84;5114818;28;19907;-56
2022/09/05 09:26:09;;;;;;;;;;;;;;;27.56;37.17;101789.66;5116181;28;19914;-57
2022/09/05 09:28:41;;;;;;;;;;;;;;;27.62;35.66;101786.22;5115346;28;20331;-57
2022/09/05 09:31:18;;;;;;;;;;;;;;;27.64;36.04;101786.84;5114894;28;19918;-56
2022/09/05 09:33:54;;;;;;;;;;;;;;;27.77;36.96;101773.41;5116108;27;19908;-57
2022/09/05 09:36:38;;;;;;;;;;;;;;;27.91;38.02;101777.19;5114669;28;20444;-57
2022/09/05 09:39:22;;;;;;;;;;;;;;;28.07;34.91;101771.53;5116143;28;19916;-57
2022/09/05 09:41:59;;;;;;;;;;;;;;;28.19;34.88;101771.06;5116138;28;20369;-57
2022/09/05 09:44:45;;;;;;;;;;;;;;;28.34;36.06;101762.81;5115257;28;19908;-57
2022/09/05 09:47:13;;;;;;;;;;;;;;;28.49;34.73;101769.13;5114361;28;20393;-56
2022/09/05 09:49:54;;;;;;;;;;;;;;;28.68;34.59;101764.94;5115599;28;19911;-57
2022/09/05 09:52:37;;;;;;;;;;;;;;;28.86;34.54;101765.34;5115890;28;20351;-57
2022/09/05 09:55:22;;;;;;;;;;;;;;;29.05;32.25;101758.38;5115263;28;19911;-57
2022/09/05 09:58:08;;;;;;;;;;;;;;;29.24;32.34;101758.75;5115867;28;20366;-57
2022/09/05 10:00:42;;;;;;;;;;;;;;;29.45;31.32;101764.22;5115391;27;19915;-57
2022/09/05 10:03:27;;;;;;;;;;;;;;;29.54;31.40;101756.69;5148672;27;19916;-57
2022/09/05 10:05:58;;;;;;;;;;;;;;;29.67;32.89;101755.94;5115564;28;20274;-57
2022/09/05 10:08:29;;;;;;;;;;;;;;;29.74;31.09;101760.44;5113719;28;20358;-57
2022/09/05 10:11:10;;;;;;;;;;;;;;;29.77;31.74;101749.06;5115327;28;19953;-57
2022/09/05 10:13:58;;;;;;;;;;;;;;;29.97;30.63;101740.06;5114810;28;20252;-57
2022/09/05 10:16:42;;;;;;;;;;;;;;;30.16;30.00;101735.75;5113924;28;20358;-57
2022/09/05 10:19:25;;;;;;;;;;;;;;;30.38;30.14;101733.72;5115078;28;19907;-57
2022/09/05 10:22:00;;;;;;;;;;;;;;;30.45;30.67;101735.44;5115272;28;19944;-57
2022/09/05 10:24:25;;;;;;;;;;;;;;;30.50;30.23;101735.69;5114856;28;19952;-57
2022/09/05 10:26:50;;;;;;;;;;;;;;;30.61;29.87;101733.38;5115103;28;19908;-57
2022/09/05 10:29:27;;;;;;;;;;;;;;;30.75;29.53;101733.19;5114548;28;19922;-57
2022/09/05 10:31:55;;;;;;;;;;;;;;;30.86;29.21;101737.25;5113749;28;19911;-57
2022/09/05 10:34:28;;;;;;;;;;;;;;;30.99;28.78;101731.75;5112501;28;20002;-57
2022/09/05 10:37:01;;;;;;;;;;;;;;;31.05;27.74;101738.31;5114478;28;19943;-57
2022/09/05 10:39:37;;;;;;;;;;;;;;;31.16;28.19;101731.34;5113369;28;20297;-57
2022/09/05 10:42:09;;;;;;;;;;;;;;;31.38;28.12;101732.00;5114824;28;20055;-57
2022/09/05 10:44:37;;;;;;;;;;;;;;;31.50;26.89;101730.28;5114344;28;20320;-57
2022/09/05 10:47:15;;;;;;;;;;;;;;;31.60;28.21;101727.09;5114545;28;19911;-57
2022/09/05 10:49:46;;;;;;;;;;;;;;;31.47;28.74;101725.22;5113172;28;19908;-57
2022/09/05 10:52:28;;;;;;;;;;;;;;;31.68;26.75;101724.97;5114346;28;20372;-57
2022/09/05 10:54:53;;;;;;;;;;;;;;;31.90;26.83;101719.22;5114355;28;19950;-57
2022/09/05 10:57:38;;;;;;;;;;;;;;;32.00;26.30;101711.31;5113081;28;19955;-57
2022/09/05 11:00:07;;;;;;;;;;;;;;;32.19;27.15;101709.56;5113741;28;19954;-57
2022/09/05 11:02:35;;;;;;;;;;;;;;;32.39;26.23;101709.47;5112962;28;19907;-55
2022/09/05 11:05:01;;;;;;;;;;;;;;;32.53;26.31;101705.59;5114304;28;19912;-55
2022/09/05 11:07:52;;;;;;;;;;;;;;;32.72;26.06;101698.25;5113823;28;19908;-55
2022/09/05 11:10:23;;;;;;;;;;;;;;;32.75;24.96;101699.72;5110120;28;19977;-55
2022/09/05 11:13:13;;;;;;;;;;;;;;;32.79;27.18;101704.53;5112889;28;19915;-55
2022/09/05 11:15:43;;;;;;;;;;;;;;;32.77;24.80;101698.44;5113967;28;19916;-55
2022/09/05 11:18:15;;;;;;;;;;;;;;;32.97;25.27;101691.91;5112607;28;19911;-55
2022/09/05 11:20:55;;;;;;;;;;;;;;;33.30;25.42;101688.88;5112387;28;19908;-55
2022/09/05 11:23:40;;;;;;;;;;;;;;;33.54;25.67;101687.16;5113699;28;19914;-55
2022/09/05 11:26:06;;;;;;;;;;;;;;;34.04;23.74;101694.47;5113814;28;19907;-55
2022/09/05 11:28:42;;;;;;;;;;;;;;;34.41;22.85;101686.91;5113230;28;19933;-55
2022/09/05 11:31:15;;;;;;;;;;;;;;;34.68;22.95;101678.22;5112563;28;19935;-55
2022/09/05 11:33:43;;;;;;;;;;;;;;;35.18;23.95;101688.91;5112188;28;19954;-56
2022/09/05 11:36:28;;;;;;;;;;;;;;;35.68;23.02;101683.72;5113541;28;20369;-55
2022/09/05 11:39:06;;;;;;;;;;;;;;;35.92;22.74;101684.50;5111869;28;20433;-55
2022/09/05 11:41:42;;;;;;;;;;;;;;;36.47;22.15;101685.00;5112329;28;20330;-55
2022/09/05 11:44:24;;;;;;;;;;;;;;;36.96;21.74;101680.59;5111842;28;19908;-55
2022/09/05 11:46:50;;;;;;;;;;;;;;;37.65;22.50;101683.06;5113607;28;19947;-55
2022/09/05 11:49:31;;;;;;;;;;;;;;;38.43;22.00;101673.69;5113159;28;20366;-55
2022/09/05 11:52:02;;;;;;;;;;;;;;;39.18;20.72;101688.50;5113576;28;19908;-56
2022/09/05 11:54:36;;;;;;;;;;;;;;;39.55;18.08;101682.06;5113059;28;19919;-55
2022/09/05 11:57:22;;;;;;;;;;;;;;;39.53;19.67;101682.31;5113799;28;19912;-56
2022/09/05 11:59:47;;;;;;;;;;;;;;;39.84;20.29;101680.53;5080653;28;19912;-55
2022/09/05 12:02:19;;;;;;;;;;;;;;;40.01;18.77;101671.13;5113080;28;19968;-56
2022/09/05 12:04:45;;;;;;;;;;;;;;;40.10;19.47;101677.84;5113036;28;19942;-56
2022/09/05 12:07:10;;;;;;;;;;;;;;;40.39;17.40;101676.25;5113128;28;19951;-56
2022/09/05 12:09:51;;;;;;;;;;;;;;;40.45;18.02;101685.47;5112910;28;19914;-56
2022/09/05 12:12:21;;;;;;;;;;;;;;;40.75;19.03;101667.06;5111998;28;19915;-56
2022/09/05 12:15:07;;;;;;;;;;;;;;;41.39;18.42;101663.63;5112565;28;20017;-56
2022/09/05 12:17:47;;;;;;;;;;;;;;;41.78;17.08;101656.50;5112793;28;19907;-56
2022/09/05 12:20:15;;;;;;;;;;;;;;;42.38;15.81;101646.91;5112660;28;19911;-56
2022/09/05 12:22:55;;;;;;;;;;;;;;;42.72;17.21;101654.50;5113007;28;20277;-56
2022/09/05 12:25:23;;;;;;;;;;;;;;;43.08;14.76;101643.75;5112951;28;20392;-56
2022/09/05 12:27:53;;;;;;;;;;;;;;;42.75;15.31;101639.09;5111556;28;20404;-56
2022/09/05 12:30:38;;;;;;;;;;;;;;;42.55;17.46;101640.91;5111281;28;19911;-56
2022/09/05 12:33:23;;;;;;;;;;;;;;;43.34;15.09;101648.28;5112846;28;19908;-56
2022/09/05 12:36:02;;;;;;;;;;;;;;;43.69;16.31;101645.03;5112584;27;19934;-56
2022/09/05 12:38:36;;;;;;;;;;;;;;;44.35;13.61;101636.81;5112460;27;19908;-56
2022/09/05 12:41:06;;;;;;;;;;;;;;;44.09;16.34;101647.56;5112796;28;19915;-56
2022/09/05 12:43:34;;;;;;;;;;;;;;;44.19;14.70;101639.00;5110945;28;19946;-56
2022/09/05 12:46:13;;;;;;;;;;;;;;;44.54;14.13;101640.41;5128413;28;19933;-56
2022/09/05 12:48:44;;;;;;;;;;;;;;;45.02;15.87;101620.44;5112337;28;19912;-56
2022/09/05 12:51:12;;;;;;;;;;;;;;;45.71;15.66;101625.19;5111500;28;20363;-56
2022/09/05 12:53:42;;;;;;;;;;;;;;;46.01;14.70;101626.53;5112555;28;19907;-56
2022/09/05 12:56:13;;;;;;;;;;;;;;;46.29;15.20;101624.44;5111223;28;19982;-56
2022/09/05 12:58:39;;;;;;;;;;;;;;;46.69;14.63;101618.09;5115279;28;19961;-56
2022/09/05 13:01:18;;;;;;;;;;;;;;;46.86;12.79;101621.81;5116471;28;19980;-56
2022/09/05 13:04:17;;;;;;;;;;;;;;;46.42;13.17;101614.25;5116481;28;19912;-56
2022/09/05 13:06:45;;;;;;;;;;;;;;;46.49;13.68;101606.19;5116517;27;20040;-56
2022/09/05 13:09:22;;;;;;;;;;;;;;;47.03;13.63;101608.97;5116370;28;20372;-56
2022/09/05 13:12:02;;;;;;;;;;;;;;;47.49;13.47;101608.47;5116632;28;19946;-56
2022/09/05 13:14:47;;;;;;;;;;;;;;;46.69;11.44;101612.47;5114532;28;19912;-56